sensor_id;sensor_type;location;lat;lon;timestamp;P1;durP1;ratioP1;P2;durP2;ratioP2
73437;SDS011;62744;56.802;23.964;2022-10-01T00:02:04;18.23;;;8.80;;
73437;SDS011;62744;56.802;23.964;2022-10-01T00:04:34;16.90;;;8.38;;
73437;SDS011;62744;56.802;23.964;2022-10-01T00:07:03;14.25;;;7.85;;
73437;SDS011;62744;56.802;23.964;2022-10-01T00:09:35;16.23;;;8.15;;
73437;SDS011;62744;56.802;23.964;2022-10-01T00:12:02;17.70;;;9.60;;
73437;SDS011;62744;56.802;23.964;2022-10-01T00:14:30;16.02;;;8.32;;
73437;SDS011;62744;56.802;23.964;2022-10-01T00:16:57;16.65;;;8.50;;
73437;SDS011;62744;56.802;23.964;2022-10-01T00:19:25;14.85;;;7.40;;
73437;SDS011;62744;56.802;23.964;2022-10-01T00:21:53;15.30;;;7.85;;
73437;SDS011;62744;56.802;23.964;2022-10-01T00:24:20;16.30;;;8.27;;
73437;SDS011;62744;56.802;23.964;2022-10-01T00:26:48;14.63;;;7.90;;
73437;SDS011;62744;56.802;23.964;2022-10-01T00:29:15;14.52;;;7.90;;
73437;SDS011;62744;56.802;23.964;2022-10-01T00:31:42;15.55;;;9.02;;
73437;SDS011;62744;56.802;23.964;2022-10-01T00:34:11;14.90;;;7.75;;
73437;SDS011;62744;56.802;23.964;2022-10-01T00:36:40;14.70;;;8.23;;
73437;SDS011;62744;56.802;23.964;2022-10-01T00:39:09;13.18;;;6.93;;
73437;SDS011;62744;56.802;23.964;2022-10-01T00:41:37;14.45;;;8.35;;
73437;SDS011;62744;56.802;23.964;2022-10-01T00:46:51;15.20;;;8.05;;
73437;SDS011;62744;56.802;23.964;2022-10-01T00:49:21;16.00;;;8.00;;
73437;SDS011;62744;56.802;23.964;2022-10-01T00:51:57;16.45;;;8.25;;
73437;SDS011;62744;56.802;23.964;2022-10-01T00:54:30;16.67;;;9.10;;
73437;SDS011;62744;56.802;23.964;2022-10-01T00:57:03;14.27;;;7.38;;
73437;SDS011;62744;56.802;23.964;2022-10-01T00:59:32;16.30;;;9.27;;
73437;SDS011;62744;56.802;23.964;2022-10-01T01:02:01;16.80;;;8.47;;
73437;SDS011;62744;56.802;23.964;2022-10-01T01:04:29;15.32;;;7.97;;
73437;SDS011;62744;56.802;23.964;2022-10-01T01:06:58;14.48;;;8.25;;
73437;SDS011;62744;56.802;23.964;2022-10-01T01:10:02;14.38;;;8.85;;
73437;SDS011;62744;56.802;23.964;2022-10-01T01:18:14;15.07;;;8.27;;
73437;SDS011;62744;56.802;23.964;2022-10-01T01:23:20;16.85;;;8.05;;
73437;SDS011;62744;56.802;23.964;2022-10-01T01:25:46;15.27;;;8.35;;
73437;SDS011;62744;56.802;23.964;2022-10-01T01:28:22;14.53;;;7.73;;
73437;SDS011;62744;56.802;23.964;2022-10-01T01:30:52;16.13;;;9.27;;
73437;SDS011;62744;56.802;23.964;2022-10-01T01:33:23;16.25;;;8.05;;
73437;SDS011;62744;56.802;23.964;2022-10-01T01:35:55;15.13;;;8.23;;
73437;SDS011;62744;56.802;23.964;2022-10-01T01:38:27;15.10;;;8.55;;
73437;SDS011;62744;56.802;23.964;2022-10-01T01:41:00;17.37;;;8.97;;
73437;SDS011;62744;56.802;23.964;2022-10-01T01:43:30;15.60;;;8.90;;
73437;SDS011;62744;56.802;23.964;2022-10-01T01:46:01;13.93;;;7.88;;
73437;SDS011;62744;56.802;23.964;2022-10-01T01:48:32;15.77;;;8.90;;
73437;SDS011;62744;56.802;23.964;2022-10-01T01:53:49;16.30;;;9.20;;
73437;SDS011;62744;56.802;23.964;2022-10-01T01:56:17;16.92;;;8.45;;
73437;SDS011;62744;56.802;23.964;2022-10-01T01:58:45;15.73;;;7.78;;
73437;SDS011;62744;56.802;23.964;2022-10-01T02:04:13;15.82;;;9.38;;
73437;SDS011;62744;56.802;23.964;2022-10-01T02:09:31;18.20;;;9.90;;
73437;SDS011;62744;56.802;23.964;2022-10-01T02:15:27;17.23;;;9.68;;
73437;SDS011;62744;56.802;23.964;2022-10-01T02:23:53;20.00;;;10.20;;
73437;SDS011;62744;56.802;23.964;2022-10-01T02:26:24;17.75;;;9.98;;
73437;SDS011;62744;56.802;23.964;2022-10-01T02:29:00;21.05;;;9.55;;
73437;SDS011;62744;56.802;23.964;2022-10-01T02:31:32;19.30;;;9.88;;
73437;SDS011;62744;56.802;23.964;2022-10-01T02:34:02;18.43;;;9.53;;
73437;SDS011;62744;56.802;23.964;2022-10-01T02:36:38;18.95;;;9.60;;
73437;SDS011;62744;56.802;23.964;2022-10-01T02:39:08;20.70;;;9.82;;
73437;SDS011;62744;56.802;23.964;2022-10-01T02:41:36;18.15;;;9.63;;
73437;SDS011;62744;56.802;23.964;2022-10-01T02:44:16;19.17;;;9.98;;
73437;SDS011;62744;56.802;23.964;2022-10-01T02:47:18;18.50;;;9.53;;
73437;SDS011;62744;56.802;23.964;2022-10-01T02:50:02;19.55;;;9.65;;
73437;SDS011;62744;56.802;23.964;2022-10-01T02:52:41;17.98;;;8.65;;
73437;SDS011;62744;56.802;23.964;2022-10-01T02:55:25;18.90;;;10.05;;
73437;SDS011;62744;56.802;23.964;2022-10-01T02:57:56;17.15;;;9.68;;
73437;SDS011;62744;56.802;23.964;2022-10-01T03:00:24;18.13;;;9.67;;
73437;SDS011;62744;56.802;23.964;2022-10-01T03:02:52;18.33;;;10.23;;
73437;SDS011;62744;56.802;23.964;2022-10-01T03:05:21;19.58;;;10.10;;
73437;SDS011;62744;56.802;23.964;2022-10-01T03:07:48;17.10;;;9.10;;
73437;SDS011;62744;56.802;23.964;2022-10-01T03:10:16;18.33;;;10.23;;
73437;SDS011;62744;56.802;23.964;2022-10-01T03:12:44;18.67;;;10.03;;
73437;SDS011;62744;56.802;23.964;2022-10-01T03:15:13;17.58;;;9.48;;
73437;SDS011;62744;56.802;23.964;2022-10-01T03:17:41;19.27;;;10.38;;
73437;SDS011;62744;56.802;23.964;2022-10-01T03:20:09;18.55;;;9.07;;
73437;SDS011;62744;56.802;23.964;2022-10-01T03:22:38;19.15;;;10.25;;
73437;SDS011;62744;56.802;23.964;2022-10-01T03:25:05;18.70;;;9.67;;
73437;SDS011;62744;56.802;23.964;2022-10-01T03:27:33;19.13;;;10.40;;
73437;SDS011;62744;56.802;23.964;2022-10-01T03:30:00;18.45;;;9.77;;
73437;SDS011;62744;56.802;23.964;2022-10-01T03:32:28;21.48;;;9.73;;
73437;SDS011;62744;56.802;23.964;2022-10-01T03:34:55;21.63;;;9.65;;
73437;SDS011;62744;56.802;23.964;2022-10-01T03:37:22;17.70;;;10.17;;
73437;SDS011;62744;56.802;23.964;2022-10-01T03:39:50;17.67;;;10.05;;
73437;SDS011;62744;56.802;23.964;2022-10-01T03:42:17;18.27;;;9.48;;
73437;SDS011;62744;56.802;23.964;2022-10-01T03:44:45;17.08;;;9.70;;
73437;SDS011;62744;56.802;23.964;2022-10-01T03:47:12;18.88;;;9.63;;
73437;SDS011;62744;56.802;23.964;2022-10-01T03:49:40;18.95;;;10.00;;
73437;SDS011;62744;56.802;23.964;2022-10-01T03:52:07;19.48;;;9.48;;
73437;SDS011;62744;56.802;23.964;2022-10-01T03:54:34;18.05;;;9.35;;
73437;SDS011;62744;56.802;23.964;2022-10-01T03:57:02;17.50;;;9.13;;
73437;SDS011;62744;56.802;23.964;2022-10-01T03:59:29;16.65;;;9.10;;
73437;SDS011;62744;56.802;23.964;2022-10-01T04:01:56;16.52;;;9.07;;
73437;SDS011;62744;56.802;23.964;2022-10-01T04:04:24;17.65;;;9.27;;
73437;SDS011;62744;56.802;23.964;2022-10-01T04:06:54;17.20;;;9.77;;
73437;SDS011;62744;56.802;23.964;2022-10-01T04:09:22;17.98;;;8.30;;
73437;SDS011;62744;56.802;23.964;2022-10-01T04:11:49;17.42;;;9.25;;
73437;SDS011;62744;56.802;23.964;2022-10-01T04:14:16;18.00;;;9.35;;
73437;SDS011;62744;56.802;23.964;2022-10-01T04:16:44;19.42;;;9.77;;
73437;SDS011;62744;56.802;23.964;2022-10-01T04:19:11;17.15;;;9.13;;
73437;SDS011;62744;56.802;23.964;2022-10-01T04:21:38;19.23;;;10.13;;
73437;SDS011;62744;56.802;23.964;2022-10-01T04:24:06;16.65;;;9.30;;
73437;SDS011;62744;56.802;23.964;2022-10-01T04:26:33;18.03;;;8.83;;
73437;SDS011;62744;56.802;23.964;2022-10-01T04:29:00;17.17;;;9.38;;
73437;SDS011;62744;56.802;23.964;2022-10-01T04:31:28;16.88;;;9.20;;
73437;SDS011;62744;56.802;23.964;2022-10-01T04:34:01;17.58;;;9.65;;
73437;SDS011;62744;56.802;23.964;2022-10-01T04:36:28;16.50;;;8.93;;
73437;SDS011;62744;56.802;23.964;2022-10-01T04:38:56;18.57;;;9.80;;
73437;SDS011;62744;56.802;23.964;2022-10-01T04:41:28;16.85;;;8.68;;
73437;SDS011;62744;56.802;23.964;2022-10-01T04:43:57;18.73;;;9.50;;
73437;SDS011;62744;56.802;23.964;2022-10-01T04:46:26;17.88;;;8.55;;
73437;SDS011;62744;56.802;23.964;2022-10-01T04:48:56;17.48;;;9.30;;
73437;SDS011;62744;56.802;23.964;2022-10-01T04:51:23;16.73;;;8.52;;
73437;SDS011;62744;56.802;23.964;2022-10-01T04:53:51;16.33;;;9.25;;
73437;SDS011;62744;56.802;23.964;2022-10-01T04:56:18;19.67;;;9.88;;
73437;SDS011;62744;56.802;23.964;2022-10-01T04:58:45;18.00;;;9.00;;
73437;SDS011;62744;56.802;23.964;2022-10-01T05:01:14;16.67;;;9.05;;
73437;SDS011;62744;56.802;23.964;2022-10-01T05:03:41;16.37;;;8.87;;
73437;SDS011;62744;56.802;23.964;2022-10-01T05:06:08;17.90;;;9.52;;
73437;SDS011;62744;56.802;23.964;2022-10-01T05:08:36;17.38;;;8.88;;
73437;SDS011;62744;56.802;23.964;2022-10-01T05:11:04;17.50;;;8.88;;
73437;SDS011;62744;56.802;23.964;2022-10-01T05:13:32;19.50;;;8.95;;
73437;SDS011;62744;56.802;23.964;2022-10-01T05:15:59;19.02;;;9.45;;
73437;SDS011;62744;56.802;23.964;2022-10-01T05:18:29;16.15;;;8.70;;
73437;SDS011;62744;56.802;23.964;2022-10-01T05:20:57;18.40;;;9.77;;
73437;SDS011;62744;56.802;23.964;2022-10-01T05:23:24;19.98;;;9.93;;
73437;SDS011;62744;56.802;23.964;2022-10-01T05:25:52;16.45;;;9.20;;
73437;SDS011;62744;56.802;23.964;2022-10-01T05:28:19;17.20;;;9.23;;
73437;SDS011;62744;56.802;23.964;2022-10-01T05:30:48;17.83;;;10.30;;
73437;SDS011;62744;56.802;23.964;2022-10-01T05:33:16;17.60;;;9.55;;
73437;SDS011;62744;56.802;23.964;2022-10-01T05:35:44;18.77;;;9.07;;
73437;SDS011;62744;56.802;23.964;2022-10-01T05:38:11;17.83;;;10.00;;
73437;SDS011;62744;56.802;23.964;2022-10-01T05:40:38;17.77;;;9.63;;
73437;SDS011;62744;56.802;23.964;2022-10-01T05:43:10;17.35;;;9.68;;
73437;SDS011;62744;56.802;23.964;2022-10-01T05:45:37;17.88;;;9.90;;
73437;SDS011;62744;56.802;23.964;2022-10-01T05:48:06;18.85;;;10.15;;
73437;SDS011;62744;56.802;23.964;2022-10-01T05:50:36;19.85;;;9.63;;
73437;SDS011;62744;56.802;23.964;2022-10-01T05:53:10;18.83;;;10.43;;
73437;SDS011;62744;56.802;23.964;2022-10-01T05:55:37;20.48;;;10.48;;
73437;SDS011;62744;56.802;23.964;2022-10-01T05:58:06;20.17;;;10.52;;
73437;SDS011;62744;56.802;23.964;2022-10-01T06:00:38;18.95;;;9.05;;
73437;SDS011;62744;56.802;23.964;2022-10-01T06:03:10;21.88;;;10.25;;
73437;SDS011;62744;56.802;23.964;2022-10-01T06:05:38;26.10;;;12.05;;
73437;SDS011;62744;56.802;23.964;2022-10-01T06:08:06;22.90;;;11.75;;
73437;SDS011;62744;56.802;23.964;2022-10-01T06:10:37;19.73;;;10.35;;
73437;SDS011;62744;56.802;23.964;2022-10-01T06:13:05;18.25;;;9.48;;
73437;SDS011;62744;56.802;23.964;2022-10-01T06:15:34;20.70;;;10.48;;
73437;SDS011;62744;56.802;23.964;2022-10-01T06:18:04;19.50;;;11.50;;
73437;SDS011;62744;56.802;23.964;2022-10-01T06:20:35;19.23;;;10.52;;
73437;SDS011;62744;56.802;23.964;2022-10-01T06:23:03;18.58;;;10.45;;
73437;SDS011;62744;56.802;23.964;2022-10-01T06:25:33;20.88;;;9.82;;
73437;SDS011;62744;56.802;23.964;2022-10-01T06:28:02;19.15;;;10.18;;
73437;SDS011;62744;56.802;23.964;2022-10-01T06:30:33;19.23;;;10.65;;
73437;SDS011;62744;56.802;23.964;2022-10-01T06:33:03;19.70;;;10.60;;
73437;SDS011;62744;56.802;23.964;2022-10-01T06:35:33;19.40;;;11.05;;
73437;SDS011;62744;56.802;23.964;2022-10-01T06:38:04;20.85;;;10.00;;
73437;SDS011;62744;56.802;23.964;2022-10-01T06:40:32;19.98;;;10.68;;
73437;SDS011;62744;56.802;23.964;2022-10-01T06:43:01;19.65;;;10.77;;
73437;SDS011;62744;56.802;23.964;2022-10-01T06:45:35;24.05;;;11.25;;
73437;SDS011;62744;56.802;23.964;2022-10-01T06:48:04;19.33;;;10.50;;
73437;SDS011;62744;56.802;23.964;2022-10-01T06:50:32;20.38;;;10.98;;
73437;SDS011;62744;56.802;23.964;2022-10-01T06:53:00;18.48;;;10.30;;
73437;SDS011;62744;56.802;23.964;2022-10-01T06:55:29;22.77;;;10.85;;
73437;SDS011;62744;56.802;23.964;2022-10-01T06:58:00;19.48;;;11.10;;
73437;SDS011;62744;56.802;23.964;2022-10-01T07:00:31;18.95;;;10.82;;
73437;SDS011;62744;56.802;23.964;2022-10-01T07:03:01;20.27;;;11.23;;
73437;SDS011;62744;56.802;23.964;2022-10-01T07:05:37;19.90;;;10.70;;
73437;SDS011;62744;56.802;23.964;2022-10-01T07:08:11;19.40;;;10.57;;
73437;SDS011;62744;56.802;23.964;2022-10-01T07:10:39;20.92;;;11.40;;
73437;SDS011;62744;56.802;23.964;2022-10-01T07:13:08;21.70;;;11.98;;
73437;SDS011;62744;56.802;23.964;2022-10-01T07:15:37;21.25;;;10.63;;
73437;SDS011;62744;56.802;23.964;2022-10-01T07:18:05;18.52;;;10.98;;
73437;SDS011;62744;56.802;23.964;2022-10-01T07:20:35;19.60;;;10.52;;
73437;SDS011;62744;56.802;23.964;2022-10-01T07:23:05;17.17;;;10.52;;
73437;SDS011;62744;56.802;23.964;2022-10-01T07:25:36;20.42;;;11.00;;
73437;SDS011;62744;56.802;23.964;2022-10-01T07:28:05;19.15;;;10.23;;
73437;SDS011;62744;56.802;23.964;2022-10-01T07:30:46;17.30;;;9.95;;
73437;SDS011;62744;56.802;23.964;2022-10-01T07:33:23;18.55;;;10.75;;
73437;SDS011;62744;56.802;23.964;2022-10-01T07:35:50;19.15;;;10.02;;
73437;SDS011;62744;56.802;23.964;2022-10-01T07:38:18;17.55;;;10.45;;
73437;SDS011;62744;56.802;23.964;2022-10-01T07:40:49;19.20;;;9.82;;
73437;SDS011;62744;56.802;23.964;2022-10-01T07:43:17;17.27;;;10.00;;
73437;SDS011;62744;56.802;23.964;2022-10-01T07:45:46;18.80;;;10.13;;
73437;SDS011;62744;56.802;23.964;2022-10-01T07:48:15;19.27;;;10.52;;
73437;SDS011;62744;56.802;23.964;2022-10-01T07:50:43;16.95;;;9.43;;
73437;SDS011;62744;56.802;23.964;2022-10-01T07:53:11;17.52;;;9.45;;
73437;SDS011;62744;56.802;23.964;2022-10-01T07:55:39;17.15;;;9.55;;
73437;SDS011;62744;56.802;23.964;2022-10-01T07:58:06;16.83;;;10.63;;
73437;SDS011;62744;56.802;23.964;2022-10-01T08:00:38;20.35;;;10.95;;
73437;SDS011;62744;56.802;23.964;2022-10-01T08:03:06;16.38;;;9.55;;
73437;SDS011;62744;56.802;23.964;2022-10-01T08:05:39;18.55;;;9.73;;
73437;SDS011;62744;56.802;23.964;2022-10-01T08:08:09;18.45;;;10.48;;
73437;SDS011;62744;56.802;23.964;2022-10-01T08:10:37;18.70;;;10.27;;
73437;SDS011;62744;56.802;23.964;2022-10-01T08:13:09;18.60;;;11.07;;
73437;SDS011;62744;56.802;23.964;2022-10-01T08:15:43;18.02;;;10.85;;
73437;SDS011;62744;56.802;23.964;2022-10-01T08:18:12;18.92;;;10.30;;
73437;SDS011;62744;56.802;23.964;2022-10-01T08:20:39;23.20;;;12.80;;
73437;SDS011;62744;56.802;23.964;2022-10-01T08:23:08;19.00;;;10.55;;
73437;SDS011;62744;56.802;23.964;2022-10-01T08:25:37;18.15;;;9.93;;
73437;SDS011;62744;56.802;23.964;2022-10-01T08:28:05;16.48;;;10.27;;
73437;SDS011;62744;56.802;23.964;2022-10-01T08:30:35;15.43;;;9.43;;
73437;SDS011;62744;56.802;23.964;2022-10-01T08:33:05;16.77;;;9.90;;
73437;SDS011;62744;56.802;23.964;2022-10-01T08:35:38;14.55;;;9.40;;
73437;SDS011;62744;56.802;23.964;2022-10-01T08:38:07;17.58;;;9.38;;
73437;SDS011;62744;56.802;23.964;2022-10-01T08:40:45;16.63;;;9.30;;
73437;SDS011;62744;56.802;23.964;2022-10-01T08:46:05;15.88;;;9.80;;
73437;SDS011;62744;56.802;23.964;2022-10-01T08:48:44;18.30;;;9.93;;
73437;SDS011;62744;56.802;23.964;2022-10-01T08:54:46;16.05;;;8.68;;
73437;SDS011;62744;56.802;23.964;2022-10-01T08:57:27;19.85;;;10.77;;
73437;SDS011;62744;56.802;23.964;2022-10-01T08:59:58;27.02;;;17.05;;
73437;SDS011;62744;56.802;23.964;2022-10-01T09:02:31;14.07;;;8.45;;
73437;SDS011;62744;56.802;23.964;2022-10-01T09:05:06;17.02;;;9.02;;
73437;SDS011;62744;56.802;23.964;2022-10-01T09:10:46;16.42;;;9.35;;
73437;SDS011;62744;56.802;23.964;2022-10-01T09:16:07;14.05;;;8.82;;
73437;SDS011;62744;56.802;23.964;2022-10-01T09:27:12;12.73;;;8.23;;
73437;SDS011;62744;56.802;23.964;2022-10-01T09:32:39;13.13;;;7.45;;
73437;SDS011;62744;56.802;23.964;2022-10-01T09:38:17;13.35;;;6.72;;
73437;SDS011;62744;56.802;23.964;2022-10-01T09:40:52;13.23;;;8.35;;
73437;SDS011;62744;56.802;23.964;2022-10-01T09:43:30;10.77;;;6.70;;
73437;SDS011;62744;56.802;23.964;2022-10-01T09:45:59;10.15;;;6.35;;
73437;SDS011;62744;56.802;23.964;2022-10-01T09:51:08;11.35;;;6.90;;
73437;SDS011;62744;56.802;23.964;2022-10-01T09:53:41;12.20;;;6.57;;
73437;SDS011;62744;56.802;23.964;2022-10-01T09:56:30;9.50;;;5.75;;
73437;SDS011;62744;56.802;23.964;2022-10-01T09:59:04;10.93;;;6.22;;
73437;SDS011;62744;56.802;23.964;2022-10-01T10:01:47;9.38;;;5.50;;
73437;SDS011;62744;56.802;23.964;2022-10-01T10:04:20;9.60;;;5.30;;
73437;SDS011;62744;56.802;23.964;2022-10-01T10:07:02;8.85;;;5.65;;
73437;SDS011;62744;56.802;23.964;2022-10-01T10:09:31;9.75;;;5.90;;
73437;SDS011;62744;56.802;23.964;2022-10-01T10:12:01;10.02;;;6.13;;
73437;SDS011;62744;56.802;23.964;2022-10-01T10:14:36;8.63;;;4.70;;
73437;SDS011;62744;56.802;23.964;2022-10-01T10:17:13;8.48;;;4.70;;
73437;SDS011;62744;56.802;23.964;2022-10-01T10:19:48;8.65;;;6.05;;
73437;SDS011;62744;56.802;23.964;2022-10-01T10:22:22;7.80;;;4.50;;
73437;SDS011;62744;56.802;23.964;2022-10-01T10:24:52;8.80;;;5.18;;
73437;SDS011;62744;56.802;23.964;2022-10-01T10:27:24;8.27;;;5.05;;
73437;SDS011;62744;56.802;23.964;2022-10-01T10:30:04;7.35;;;5.20;;
73437;SDS011;62744;56.802;23.964;2022-10-01T10:32:42;8.02;;;4.70;;
73437;SDS011;62744;56.802;23.964;2022-10-01T10:35:23;9.68;;;5.65;;
73437;SDS011;62744;56.802;23.964;2022-10-01T10:37:52;9.10;;;4.63;;
73437;SDS011;62744;56.802;23.964;2022-10-01T10:40:24;8.63;;;4.60;;
73437;SDS011;62744;56.802;23.964;2022-10-01T10:43:11;7.80;;;5.30;;
73437;SDS011;62744;56.802;23.964;2022-10-01T10:45:51;8.57;;;4.95;;
73437;SDS011;62744;56.802;23.964;2022-10-01T10:48:23;9.25;;;5.15;;
73437;SDS011;62744;56.802;23.964;2022-10-01T10:51:02;9.35;;;4.93;;
73437;SDS011;62744;56.802;23.964;2022-10-01T10:53:41;9.23;;;5.60;;
73437;SDS011;62744;56.802;23.964;2022-10-01T10:56:18;8.98;;;4.90;;
73437;SDS011;62744;56.802;23.964;2022-10-01T10:58:50;8.68;;;5.20;;
73437;SDS011;62744;56.802;23.964;2022-10-01T11:01:24;8.70;;;5.32;;
73437;SDS011;62744;56.802;23.964;2022-10-01T11:03:55;7.90;;;4.90;;
73437;SDS011;62744;56.802;23.964;2022-10-01T11:06:24;8.52;;;4.70;;
73437;SDS011;62744;56.802;23.964;2022-10-01T11:08:57;7.18;;;5.00;;
73437;SDS011;62744;56.802;23.964;2022-10-01T11:25:23;8.85;;;5.18;;
73437;SDS011;62744;56.802;23.964;2022-10-01T11:30:32;8.70;;;4.90;;
73437;SDS011;62744;56.802;23.964;2022-10-01T11:36:08;7.90;;;4.85;;
73437;SDS011;62744;56.802;23.964;2022-10-01T11:38:55;11.65;;;7.30;;
73437;SDS011;62744;56.802;23.964;2022-10-01T11:41:37;12.32;;;7.22;;
73437;SDS011;62744;56.802;23.964;2022-10-01T11:49:21;13.63;;;8.35;;
73437;SDS011;62744;56.802;23.964;2022-10-01T11:54:55;12.27;;;7.60;;
73437;SDS011;62744;56.802;23.964;2022-10-01T11:57:50;11.40;;;7.57;;
73437;SDS011;62744;56.802;23.964;2022-10-01T12:00:41;34.38;;;17.65;;
73437;SDS011;62744;56.802;23.964;2022-10-01T12:03:22;14.18;;;8.23;;
73437;SDS011;62744;56.802;23.964;2022-10-01T12:06:00;10.77;;;5.97;;
73437;SDS011;62744;56.802;23.964;2022-10-01T12:08:30;8.10;;;5.10;;
73437;SDS011;62744;56.802;23.964;2022-10-01T12:12:03;8.77;;;5.18;;
73437;SDS011;62744;56.802;23.964;2022-10-01T12:14:19;8.35;;;4.82;;
73437;SDS011;62744;56.802;23.964;2022-10-01T12:16:59;7.90;;;4.60;;
73437;SDS011;62744;56.802;23.964;2022-10-01T12:19:38;8.63;;;4.47;;
73437;SDS011;62744;56.802;23.964;2022-10-01T12:22:14;7.25;;;4.22;;
73437;SDS011;62744;56.802;23.964;2022-10-01T12:24:50;8.35;;;4.25;;
73437;SDS011;62744;56.802;23.964;2022-10-01T12:27:32;7.38;;;4.00;;
73437;SDS011;62744;56.802;23.964;2022-10-01T12:38:43;8.43;;;4.55;;
73437;SDS011;62744;56.802;23.964;2022-10-01T12:42:06;7.00;;;4.28;;
73437;SDS011;62744;56.802;23.964;2022-10-01T12:47:50;7.60;;;4.75;;
73437;SDS011;62744;56.802;23.964;2022-10-01T12:56:16;7.85;;;3.83;;
73437;SDS011;62744;56.802;23.964;2022-10-01T13:01:38;7.28;;;4.55;;
73437;SDS011;62744;56.802;23.964;2022-10-01T13:04:36;8.90;;;4.93;;
73437;SDS011;62744;56.802;23.964;2022-10-01T13:13:00;7.80;;;4.32;;
73437;SDS011;62744;56.802;23.964;2022-10-01T13:15:51;8.10;;;3.92;;
73437;SDS011;62744;56.802;23.964;2022-10-01T13:19:13;7.82;;;4.18;;
73437;SDS011;62744;56.802;23.964;2022-10-01T13:21:34;9.25;;;4.53;;
73437;SDS011;62744;56.802;23.964;2022-10-01T13:27:03;12.27;;;7.85;;
73437;SDS011;62744;56.802;23.964;2022-10-01T13:35:25;9.52;;;5.80;;
73437;SDS011;62744;56.802;23.964;2022-10-01T13:38:44;8.00;;;5.03;;
73437;SDS011;62744;56.802;23.964;2022-10-01T13:41:05;8.70;;;5.30;;
73437;SDS011;62744;56.802;23.964;2022-10-01T13:43:46;9.55;;;5.72;;
73437;SDS011;62744;56.802;23.964;2022-10-01T13:46:19;8.05;;;5.15;;
73437;SDS011;62744;56.802;23.964;2022-10-01T13:48:47;8.93;;;6.13;;
73437;SDS011;62744;56.802;23.964;2022-10-01T13:51:16;9.57;;;5.40;;
73437;SDS011;62744;56.802;23.964;2022-10-01T13:53:45;8.15;;;4.90;;
73437;SDS011;62744;56.802;23.964;2022-10-01T13:56:30;9.30;;;3.70;;
73437;SDS011;62744;56.802;23.964;2022-10-01T13:59:02;8.35;;;4.82;;
73437;SDS011;62744;56.802;23.964;2022-10-01T14:01:44;9.57;;;5.55;;
73437;SDS011;62744;56.802;23.964;2022-10-01T14:06:52;7.78;;;4.32;;
73437;SDS011;62744;56.802;23.964;2022-10-01T14:09:34;7.93;;;4.82;;
73437;SDS011;62744;56.802;23.964;2022-10-01T14:12:13;9.75;;;5.13;;
73437;SDS011;62744;56.802;23.964;2022-10-01T14:18:13;7.22;;;4.22;;
73437;SDS011;62744;56.802;23.964;2022-10-01T14:23:50;8.52;;;5.35;;
73437;SDS011;62744;56.802;23.964;2022-10-01T14:35:56;10.38;;;5.55;;
73437;SDS011;62744;56.802;23.964;2022-10-01T14:38:32;7.93;;;5.18;;
73437;SDS011;62744;56.802;23.964;2022-10-01T14:41:00;9.55;;;6.10;;
73437;SDS011;62744;56.802;23.964;2022-10-01T14:43:29;11.48;;;6.70;;
73437;SDS011;62744;56.802;23.964;2022-10-01T14:45:59;9.73;;;6.05;;
73437;SDS011;62744;56.802;23.964;2022-10-01T14:48:29;10.77;;;6.82;;
73437;SDS011;62744;56.802;23.964;2022-10-01T14:51:02;12.23;;;6.60;;
73437;SDS011;62744;56.802;23.964;2022-10-01T14:53:32;9.48;;;6.55;;
73437;SDS011;62744;56.802;23.964;2022-10-01T14:56:05;10.70;;;7.70;;
73437;SDS011;62744;56.802;23.964;2022-10-01T14:58:39;12.38;;;7.68;;
73437;SDS011;62744;56.802;23.964;2022-10-01T15:01:19;11.20;;;7.40;;
73437;SDS011;62744;56.802;23.964;2022-10-01T15:03:49;10.10;;;6.60;;
73437;SDS011;62744;56.802;23.964;2022-10-01T15:06:19;11.38;;;6.97;;
73437;SDS011;62744;56.802;23.964;2022-10-01T15:08:49;11.15;;;6.72;;
73437;SDS011;62744;56.802;23.964;2022-10-01T15:11:25;13.13;;;8.52;;
73437;SDS011;62744;56.802;23.964;2022-10-01T15:13:57;14.63;;;8.43;;
73437;SDS011;62744;56.802;23.964;2022-10-01T15:16:30;12.43;;;8.13;;
73437;SDS011;62744;56.802;23.964;2022-10-01T15:19:04;16.02;;;10.85;;
73437;SDS011;62744;56.802;23.964;2022-10-01T15:24:57;17.33;;;11.05;;
73437;SDS011;62744;56.802;23.964;2022-10-01T15:27:08;13.32;;;8.10;;
73437;SDS011;62744;56.802;23.964;2022-10-01T15:29:40;10.88;;;7.28;;
73437;SDS011;62744;56.802;23.964;2022-10-01T15:32:11;12.30;;;7.15;;
73437;SDS011;62744;56.802;23.964;2022-10-01T15:34:46;9.40;;;5.82;;
73437;SDS011;62744;56.802;23.964;2022-10-01T15:37:32;11.52;;;6.45;;
73437;SDS011;62744;56.802;23.964;2022-10-01T15:40:02;11.20;;;6.38;;
73437;SDS011;62744;56.802;23.964;2022-10-01T15:42:33;9.25;;;5.30;;
73437;SDS011;62744;56.802;23.964;2022-10-01T15:47:38;9.00;;;5.60;;
73437;SDS011;62744;56.802;23.964;2022-10-01T15:50:23;10.40;;;7.07;;
73437;SDS011;62744;56.802;23.964;2022-10-01T15:53:00;10.82;;;7.70;;
73437;SDS011;62744;56.802;23.964;2022-10-01T15:58:17;10.05;;;6.82;;
73437;SDS011;62744;56.802;23.964;2022-10-01T16:06:33;10.07;;;4.85;;
73437;SDS011;62744;56.802;23.964;2022-10-01T16:09:24;9.30;;;5.75;;
73437;SDS011;62744;56.802;23.964;2022-10-01T16:12:01;12.75;;;6.22;;
73437;SDS011;62744;56.802;23.964;2022-10-01T16:19:48;12.05;;;7.40;;
73437;SDS011;62744;56.802;23.964;2022-10-01T16:22:22;9.88;;;6.25;;
73437;SDS011;62744;56.802;23.964;2022-10-01T16:24:55;10.85;;;6.63;;
73437;SDS011;62744;56.802;23.964;2022-10-01T16:27:47;12.85;;;7.35;;
73437;SDS011;62744;56.802;23.964;2022-10-01T16:30:19;12.07;;;6.93;;
73437;SDS011;62744;56.802;23.964;2022-10-01T16:32:49;10.95;;;6.40;;
73437;SDS011;62744;56.802;23.964;2022-10-01T16:35:18;10.38;;;6.63;;
73437;SDS011;62744;56.802;23.964;2022-10-01T16:37:51;10.77;;;6.33;;
73437;SDS011;62744;56.802;23.964;2022-10-01T16:40:24;14.05;;;7.43;;
73437;SDS011;62744;56.802;23.964;2022-10-01T16:42:54;12.10;;;7.45;;
73437;SDS011;62744;56.802;23.964;2022-10-01T16:45:24;14.27;;;7.03;;
73437;SDS011;62744;56.802;23.964;2022-10-01T16:47:56;13.70;;;8.20;;
73437;SDS011;62744;56.802;23.964;2022-10-01T16:50:25;13.77;;;7.53;;
73437;SDS011;62744;56.802;23.964;2022-10-01T16:52:53;12.07;;;7.63;;
73437;SDS011;62744;56.802;23.964;2022-10-01T16:55:23;12.65;;;6.82;;
73437;SDS011;62744;56.802;23.964;2022-10-01T16:57:53;13.18;;;7.30;;
73437;SDS011;62744;56.802;23.964;2022-10-01T17:00:22;11.07;;;7.05;;
73437;SDS011;62744;56.802;23.964;2022-10-01T17:02:55;10.90;;;6.87;;
73437;SDS011;62744;56.802;23.964;2022-10-01T17:05:30;12.10;;;6.93;;
73437;SDS011;62744;56.802;23.964;2022-10-01T17:08:00;10.93;;;6.40;;
73437;SDS011;62744;56.802;23.964;2022-10-01T17:10:31;11.93;;;7.15;;
73437;SDS011;62744;56.802;23.964;2022-10-01T17:13:02;11.25;;;6.55;;
73437;SDS011;62744;56.802;23.964;2022-10-01T17:15:30;10.83;;;7.23;;
73437;SDS011;62744;56.802;23.964;2022-10-01T17:17:58;10.30;;;6.53;;
73437;SDS011;62744;56.802;23.964;2022-10-01T17:20:28;13.40;;;7.28;;
73437;SDS011;62744;56.802;23.964;2022-10-01T17:22:56;11.27;;;6.93;;
73437;SDS011;62744;56.802;23.964;2022-10-01T17:25:25;11.10;;;6.97;;
73437;SDS011;62744;56.802;23.964;2022-10-01T17:28:04;11.20;;;6.67;;
73437;SDS011;62744;56.802;23.964;2022-10-01T17:30:34;11.55;;;6.65;;